sensor_id;sensor_type;location;lat;lon;timestamp;P1;durP1;ratioP1;P2;durP2;ratioP2
6185;SDS011;3126;52.738;8.316;2022-09-09T00:06:24;12.55;;;9.88;;
6185;SDS011;3126;52.738;8.316;2022-09-09T00:16:40;13.98;;;10.00;;
6185;SDS011;3126;52.738;8.316;2022-09-09T00:32:31;14.93;;;10.38;;
6185;SDS011;3126;52.738;8.316;2022-09-09T00:37:35;11.98;;;9.68;;
6185;SDS011;3126;52.738;8.316;2022-09-09T00:42:41;12.68;;;8.75;;
6185;SDS011;3126;52.738;8.316;2022-09-09T00:47:46;13.27;;;9.70;;
6185;SDS011;3126;52.738;8.316;2022-09-09T00:52:54;11.00;;;8.18;;
6185;SDS011;3126;52.738;8.316;2022-09-09T00:58:06;8.68;;;7.22;;
6185;SDS011;3126;52.738;8.316;2022-09-09T01:03:19;8.77;;;7.43;;
6185;SDS011;3126;52.738;8.316;2022-09-09T01:13:53;10.77;;;7.45;;
6185;SDS011;3126;52.738;8.316;2022-09-09T01:24:15;9.80;;;7.03;;
6185;SDS011;3126;52.738;8.316;2022-09-09T01:29:38;8.73;;;7.05;;
6185;SDS011;3126;52.738;8.316;2022-09-09T01:34:39;9.98;;;7.10;;
6185;SDS011;3126;52.738;8.316;2022-09-09T01:39:41;8.32;;;6.93;;
6185;SDS011;3126;52.738;8.316;2022-09-09T01:44:44;9.00;;;6.85;;
6185;SDS011;3126;52.738;8.316;2022-09-09T01:49:45;10.07;;;6.45;;
6185;SDS011;3126;52.738;8.316;2022-09-09T01:54:45;8.35;;;6.00;;
6185;SDS011;3126;52.738;8.316;2022-09-09T01:59:55;11.85;;;6.85;;
6185;SDS011;3126;52.738;8.316;2022-09-09T02:20:56;8.57;;;6.22;;
6185;SDS011;3126;52.738;8.316;2022-09-09T02:25:59;10.05;;;6.35;;
6185;SDS011;3126;52.738;8.316;2022-09-09T02:31:02;10.90;;;6.50;;
6185;SDS011;3126;52.738;8.316;2022-09-09T02:36:04;10.55;;;6.30;;
6185;SDS011;3126;52.738;8.316;2022-09-09T02:41:07;8.05;;;6.55;;
6185;SDS011;3126;52.738;8.316;2022-09-09T02:46:14;9.13;;;6.30;;
6185;SDS011;3126;52.738;8.316;2022-09-09T02:51:21;9.65;;;6.72;;
6185;SDS011;3126;52.738;8.316;2022-09-09T02:56:32;11.38;;;7.35;;
6185;SDS011;3126;52.738;8.316;2022-09-09T03:01:39;9.98;;;6.88;;
6185;SDS011;3126;52.738;8.316;2022-09-09T03:06:40;12.07;;;7.25;;
6185;SDS011;3126;52.738;8.316;2022-09-09T03:11:40;12.00;;;7.50;;
6185;SDS011;3126;52.738;8.316;2022-09-09T03:16:41;10.48;;;6.75;;
6185;SDS011;3126;52.738;8.316;2022-09-09T03:21:42;12.10;;;6.93;;
6185;SDS011;3126;52.738;8.316;2022-09-09T03:26:43;10.60;;;6.63;;
6185;SDS011;3126;52.738;8.316;2022-09-09T03:31:46;8.15;;;6.97;;
6185;SDS011;3126;52.738;8.316;2022-09-09T03:36:47;8.25;;;5.90;;
6185;SDS011;3126;52.738;8.316;2022-09-09T03:41:49;11.70;;;6.13;;
6185;SDS011;3126;52.738;8.316;2022-09-09T03:46:49;8.90;;;6.22;;
6185;SDS011;3126;52.738;8.316;2022-09-09T03:51:50;9.57;;;6.68;;
6185;SDS011;3126;52.738;8.316;2022-09-09T03:56:51;7.55;;;6.13;;
6185;SDS011;3126;52.738;8.316;2022-09-09T04:01:51;8.27;;;5.90;;
6185;SDS011;3126;52.738;8.316;2022-09-09T04:06:52;8.02;;;5.43;;
6185;SDS011;3126;52.738;8.316;2022-09-09T04:11:53;8.52;;;5.30;;
6185;SDS011;3126;52.738;8.316;2022-09-09T04:16:54;9.55;;;6.03;;
6185;SDS011;3126;52.738;8.316;2022-09-09T04:21:57;7.60;;;5.57;;
6185;SDS011;3126;52.738;8.316;2022-09-09T04:26:58;9.57;;;6.47;;
6185;SDS011;3126;52.738;8.316;2022-09-09T04:31:59;6.03;;;5.38;;
6185;SDS011;3126;52.738;8.316;2022-09-09T04:37:00;8.93;;;5.90;;
6185;SDS011;3126;52.738;8.316;2022-09-09T04:42:01;11.98;;;5.60;;
6185;SDS011;3126;52.738;8.316;2022-09-09T04:47:02;10.40;;;6.00;;
6185;SDS011;3126;52.738;8.316;2022-09-09T04:52:03;9.73;;;5.78;;
6185;SDS011;3126;52.738;8.316;2022-09-09T04:57:03;10.95;;;6.10;;
6185;SDS011;3126;52.738;8.316;2022-09-09T05:02:05;9.73;;;5.78;;
6185;SDS011;3126;52.738;8.316;2022-09-09T05:07:06;8.82;;;5.45;;
6185;SDS011;3126;52.738;8.316;2022-09-09T05:12:06;9.18;;;6.28;;
6185;SDS011;3126;52.738;8.316;2022-09-09T05:17:08;13.77;;;5.85;;
6185;SDS011;3126;52.738;8.316;2022-09-09T05:22:09;10.18;;;7.30;;
6185;SDS011;3126;52.738;8.316;2022-09-09T05:27:09;12.55;;;5.95;;
6185;SDS011;3126;52.738;8.316;2022-09-09T05:32:12;11.20;;;6.22;;
6185;SDS011;3126;52.738;8.316;2022-09-09T05:37:15;6.93;;;6.03;;
6185;SDS011;3126;52.738;8.316;2022-09-09T05:42:16;7.05;;;5.50;;
6185;SDS011;3126;52.738;8.316;2022-09-09T05:47:17;9.02;;;6.45;;
6185;SDS011;3126;52.738;8.316;2022-09-09T05:52:17;10.05;;;6.57;;
6185;SDS011;3126;52.738;8.316;2022-09-09T05:57:18;10.70;;;6.20;;
6185;SDS011;3126;52.738;8.316;2022-09-09T06:02:19;8.85;;;5.82;;
6185;SDS011;3126;52.738;8.316;2022-09-09T06:07:19;11.98;;;7.53;;
6185;SDS011;3126;52.738;8.316;2022-09-09T06:12:20;10.05;;;5.78;;
6185;SDS011;3126;52.738;8.316;2022-09-09T06:17:21;10.40;;;6.80;;
6185;SDS011;3126;52.738;8.316;2022-09-09T06:22:21;11.15;;;6.65;;
6185;SDS011;3126;52.738;8.316;2022-09-09T06:27:22;9.65;;;6.57;;
6185;SDS011;3126;52.738;8.316;2022-09-09T06:32:22;10.55;;;6.45;;
6185;SDS011;3126;52.738;8.316;2022-09-09T06:37:23;10.15;;;7.05;;
6185;SDS011;3126;52.738;8.316;2022-09-09T06:42:24;8.98;;;6.97;;
6185;SDS011;3126;52.738;8.316;2022-09-09T06:47:24;9.13;;;5.90;;
6185;SDS011;3126;52.738;8.316;2022-09-09T06:52:25;8.95;;;5.70;;
6185;SDS011;3126;52.738;8.316;2022-09-09T06:57:26;8.27;;;5.82;;
6185;SDS011;3126;52.738;8.316;2022-09-09T07:02:26;8.57;;;5.50;;
6185;SDS011;3126;52.738;8.316;2022-09-09T07:07:27;13.23;;;6.47;;
6185;SDS011;3126;52.738;8.316;2022-09-09T07:12:27;9.07;;;6.13;;
6185;SDS011;3126;52.738;8.316;2022-09-09T07:17:28;6.28;;;5.30;;
6185;SDS011;3126;52.738;8.316;2022-09-09T07:22:29;7.63;;;5.47;;
6185;SDS011;3126;52.738;8.316;2022-09-09T07:27:29;8.95;;;5.60;;
6185;SDS011;3126;52.738;8.316;2022-09-09T07:32:30;7.78;;;5.68;;
6185;SDS011;3126;52.738;8.316;2022-09-09T07:37:30;6.82;;;4.65;;
6185;SDS011;3126;52.738;8.316;2022-09-09T07:42:31;7.80;;;4.88;;
6185;SDS011;3126;52.738;8.316;2022-09-09T07:47:31;6.82;;;4.95;;
6185;SDS011;3126;52.738;8.316;2022-09-09T07:52:33;6.68;;;5.32;;
6185;SDS011;3126;52.738;8.316;2022-09-09T07:57:34;10.20;;;4.97;;
6185;SDS011;3126;52.738;8.316;2022-09-09T08:02:34;4.80;;;3.88;;
6185;SDS011;3126;52.738;8.316;2022-09-09T08:07:35;9.15;;;4.72;;
6185;SDS011;3126;52.738;8.316;2022-09-09T08:12:35;7.43;;;5.00;;
6185;SDS011;3126;52.738;8.316;2022-09-09T08:17:36;7.00;;;4.55;;
6185;SDS011;3126;52.738;8.316;2022-09-09T08:22:37;6.95;;;4.68;;
6185;SDS011;3126;52.738;8.316;2022-09-09T08:27:38;5.70;;;4.43;;
6185;SDS011;3126;52.738;8.316;2022-09-09T08:32:38;6.90;;;5.20;;
6185;SDS011;3126;52.738;8.316;2022-09-09T08:37:39;5.20;;;4.30;;
6185;SDS011;3126;52.738;8.316;2022-09-09T08:42:49;8.68;;;4.28;;
6185;SDS011;3126;52.738;8.316;2022-09-09T08:47:58;6.47;;;3.90;;
6185;SDS011;3126;52.738;8.316;2022-09-09T08:58:12;5.32;;;3.53;;
6185;SDS011;3126;52.738;8.316;2022-09-09T09:04:07;6.53;;;4.60;;
6185;SDS011;3126;52.738;8.316;2022-09-09T09:09:01;6.10;;;4.35;;
6185;SDS011;3126;52.738;8.316;2022-09-09T09:14:15;3.85;;;3.42;;
6185;SDS011;3126;52.738;8.316;2022-09-09T09:19:22;6.82;;;4.72;;
6185;SDS011;3126;52.738;8.316;2022-09-09T09:29:42;6.18;;;3.80;;
6185;SDS011;3126;52.738;8.316;2022-09-09T09:34:54;5.57;;;3.17;;
6185;SDS011;3126;52.738;8.316;2022-09-09T09:39:56;6.82;;;3.42;;
6185;SDS011;3126;52.738;8.316;2022-09-09T09:51:14;6.05;;;3.38;;
6185;SDS011;3126;52.738;8.316;2022-09-09T09:56:13;4.75;;;3.45;;
6185;SDS011;3126;52.738;8.316;2022-09-09T10:01:33;6.93;;;4.13;;
6185;SDS011;3126;52.738;8.316;2022-09-09T10:06:36;6.18;;;3.63;;
6185;SDS011;3126;52.738;8.316;2022-09-09T10:22:08;4.93;;;3.50;;
6185;SDS011;3126;52.738;8.316;2022-09-09T10:59:23;8.43;;;3.20;;
6185;SDS011;3126;52.738;8.316;2022-09-09T11:04:32;6.13;;;3.08;;
6185;SDS011;3126;52.738;8.316;2022-09-09T11:09:41;5.75;;;2.92;;
6185;SDS011;3126;52.738;8.316;2022-09-09T11:14:49;5.40;;;3.00;;
6185;SDS011;3126;52.738;8.316;2022-09-09T11:20:10;7.20;;;3.22;;
6185;SDS011;3126;52.738;8.316;2022-09-09T11:41:00;5.35;;;3.70;;
6185;SDS011;3126;52.738;8.316;2022-09-09T11:46:03;3.50;;;3.20;;
6185;SDS011;3126;52.738;8.316;2022-09-09T11:51:08;7.10;;;3.85;;
6185;SDS011;3126;52.738;8.316;2022-09-09T11:56:11;7.82;;;3.65;;
6185;SDS011;3126;52.738;8.316;2022-09-09T12:01:14;6.28;;;3.80;;
6185;SDS011;3126;52.738;8.316;2022-09-09T12:06:46;5.65;;;3.83;;
6185;SDS011;3126;52.738;8.316;2022-09-09T12:12:39;3.90;;;3.28;;
6185;SDS011;3126;52.738;8.316;2022-09-09T12:17:25;5.47;;;3.22;;
6185;SDS011;3126;52.738;8.316;2022-09-09T12:28:11;7.43;;;3.50;;
6185;SDS011;3126;52.738;8.316;2022-09-09T12:33:18;4.82;;;3.50;;
6185;SDS011;3126;52.738;8.316;2022-09-09T12:38:52;6.03;;;3.17;;
6185;SDS011;3126;52.738;8.316;2022-09-09T12:43:46;5.20;;;3.28;;
6185;SDS011;3126;52.738;8.316;2022-09-09T12:48:47;5.60;;;2.75;;
6185;SDS011;3126;52.738;8.316;2022-09-09T12:53:47;5.78;;;2.20;;
6185;SDS011;3126;52.738;8.316;2022-09-09T12:58:48;4.70;;;1.70;;
6185;SDS011;3126;52.738;8.316;2022-09-09T13:03:51;1.80;;;1.00;;
6185;SDS011;3126;52.738;8.316;2022-09-09T13:08:53;5.75;;;1.88;;
6185;SDS011;3126;52.738;8.316;2022-09-09T13:13:56;4.68;;;2.65;;
6185;SDS011;3126;52.738;8.316;2022-09-09T13:23:59;3.00;;;2.05;;
6185;SDS011;3126;52.738;8.316;2022-09-09T13:29:16;3.80;;;2.20;;
6185;SDS011;3126;52.738;8.316;2022-09-09T13:34:31;3.58;;;2.13;;
6185;SDS011;3126;52.738;8.316;2022-09-09T13:39:36;6.78;;;2.20;;
6185;SDS011;3126;52.738;8.316;2022-09-09T13:44:38;4.68;;;2.40;;
6185;SDS011;3126;52.738;8.316;2022-09-09T13:49:41;6.28;;;2.42;;
6185;SDS011;3126;52.738;8.316;2022-09-09T13:54:42;3.47;;;2.00;;
6185;SDS011;3126;52.738;8.316;2022-09-09T13:59:47;5.18;;;2.28;;
6185;SDS011;3126;52.738;8.316;2022-09-09T14:04:48;3.47;;;1.70;;
6185;SDS011;3126;52.738;8.316;2022-09-09T14:09:50;3.47;;;2.30;;
6185;SDS011;3126;52.738;8.316;2022-09-09T14:14:52;3.83;;;2.28;;
6185;SDS011;3126;52.738;8.316;2022-09-09T14:19:52;3.55;;;2.22;;
6185;SDS011;3126;52.738;8.316;2022-09-09T14:24:53;4.95;;;2.55;;
6185;SDS011;3126;52.738;8.316;2022-09-09T14:29:54;4.88;;;2.72;;
6185;SDS011;3126;52.738;8.316;2022-09-09T14:34:55;2.88;;;2.58;;
6185;SDS011;3126;52.738;8.316;2022-09-09T14:39:56;3.97;;;2.60;;
6185;SDS011;3126;52.738;8.316;2022-09-09T14:44:57;3.85;;;2.42;;
6185;SDS011;3126;52.738;8.316;2022-09-09T14:49:57;2.95;;;2.47;;
6185;SDS011;3126;52.738;8.316;2022-09-09T14:54:58;3.58;;;2.40;;
6185;SDS011;3126;52.738;8.316;2022-09-09T14:59:58;4.00;;;2.40;;
6185;SDS011;3126;52.738;8.316;2022-09-09T15:04:59;2.92;;;2.17;;
6185;SDS011;3126;52.738;8.316;2022-09-09T15:10:00;3.60;;;2.10;;
6185;SDS011;3126;52.738;8.316;2022-09-09T15:15:00;5.03;;;2.40;;
6185;SDS011;3126;52.738;8.316;2022-09-09T15:20:02;3.25;;;2.10;;
6185;SDS011;3126;52.738;8.316;2022-09-09T15:25:05;4.40;;;2.55;;
6185;SDS011;3126;52.738;8.316;2022-09-09T15:30:08;4.63;;;2.53;;
6185;SDS011;3126;52.738;8.316;2022-09-09T15:35:10;7.38;;;3.03;;
6185;SDS011;3126;52.738;8.316;2022-09-09T15:40:10;4.68;;;2.92;;
6185;SDS011;3126;52.738;8.316;2022-09-09T15:45:11;4.45;;;3.30;;
6185;SDS011;3126;52.738;8.316;2022-09-09T15:50:12;4.20;;;3.17;;
6185;SDS011;3126;52.738;8.316;2022-09-09T15:55:13;2.25;;;0.88;;
6185;SDS011;3126;52.738;8.316;2022-09-09T16:00:13;1.15;;;0.70;;
6185;SDS011;3126;52.738;8.316;2022-09-09T16:05:14;3.60;;;1.48;;
6185;SDS011;3126;52.738;8.316;2022-09-09T16:10:16;3.28;;;1.58;;
6185;SDS011;3126;52.738;8.316;2022-09-09T16:15:16;4.32;;;1.40;;
6185;SDS011;3126;52.738;8.316;2022-09-09T16:20:17;2.05;;;1.10;;
6185;SDS011;3126;52.738;8.316;2022-09-09T16:25:18;3.45;;;1.55;;
6185;SDS011;3126;52.738;8.316;2022-09-09T16:30:19;2.53;;;1.90;;
6185;SDS011;3126;52.738;8.316;2022-09-09T16:35:20;1.58;;;1.48;;
6185;SDS011;3126;52.738;8.316;2022-09-09T16:40:22;1.80;;;1.55;;
6185;SDS011;3126;52.738;8.316;2022-09-09T16:45:22;7.45;;;3.28;;
6185;SDS011;3126;52.738;8.316;2022-09-09T16:50:23;4.20;;;2.15;;
6185;SDS011;3126;52.738;8.316;2022-09-09T16:55:23;3.22;;;2.05;;
6185;SDS011;3126;52.738;8.316;2022-09-09T17:05:27;5.65;;;2.60;;
6185;SDS011;3126;52.738;8.316;2022-09-09T17:10:28;3.47;;;2.65;;
6185;SDS011;3126;52.738;8.316;2022-09-09T17:15:29;3.70;;;3.30;;
6185;SDS011;3126;52.738;8.316;2022-09-09T17:20:30;4.32;;;3.20;;
6185;SDS011;3126;52.738;8.316;2022-09-09T17:25:30;4.35;;;3.22;;
6185;SDS011;3126;52.738;8.316;2022-09-09T17:30:34;4.13;;;2.90;;
6185;SDS011;3126;52.738;8.316;2022-09-09T17:35:36;5.28;;;3.95;;
6185;SDS011;3126;52.738;8.316;2022-09-09T17:40:37;4.25;;;3.15;;
6185;SDS011;3126;52.738;8.316;2022-09-09T17:45:38;6.82;;;3.80;;
6185;SDS011;3126;52.738;8.316;2022-09-09T17:50:39;4.10;;;3.15;;
6185;SDS011;3126;52.738;8.316;2022-09-09T17:55:40;4.35;;;3.28;;
6185;SDS011;3126;52.738;8.316;2022-09-09T18:00:41;3.83;;;3.10;;
6185;SDS011;3126;52.738;8.316;2022-09-09T18:05:41;3.75;;;3.45;;
6185;SDS011;3126;52.738;8.316;2022-09-09T18:10:42;4.97;;;3.70;;
6185;SDS011;3126;52.738;8.316;2022-09-09T18:15:52;4.43;;;4.00;;
6185;SDS011;3126;52.738;8.316;2022-09-09T18:21:04;5.45;;;3.30;;
6185;SDS011;3126;52.738;8.316;2022-09-09T18:26:10;4.30;;;3.33;;
6185;SDS011;3126;52.738;8.316;2022-09-09T18:31:13;3.80;;;3.42;;
6185;SDS011;3126;52.738;8.316;2022-09-09T18:36:16;6.00;;;4.75;;
6185;SDS011;3126;52.738;8.316;2022-09-09T18:46:46;5.90;;;4.18;;
6185;SDS011;3126;52.738;8.316;2022-09-09T18:51:47;7.15;;;4.60;;
6185;SDS011;3126;52.738;8.316;2022-09-09T18:56:48;5.95;;;4.55;;
6185;SDS011;3126;52.738;8.316;2022-09-09T19:01:50;5.80;;;3.35;;
6185;SDS011;3126;52.738;8.316;2022-09-09T19:06:52;4.78;;;3.80;;
6185;SDS011;3126;52.738;8.316;2022-09-09T19:11:57;4.32;;;3.78;;
6185;SDS011;3126;52.738;8.316;2022-09-09T19:16:58;4.57;;;4.00;;
6185;SDS011;3126;52.738;8.316;2022-09-09T19:22:00;3.40;;;3.20;;
6185;SDS011;3126;52.738;8.316;2022-09-09T19:27:01;6.05;;;5.45;;
6185;SDS011;3126;52.738;8.316;2022-09-09T19:32:05;6.10;;;3.72;;
6185;SDS011;3126;52.738;8.316;2022-09-09T19:37:06;6.05;;;5.55;;
6185;SDS011;3126;52.738;8.316;2022-09-09T19:42:06;5.50;;;5.10;;
6185;SDS011;3126;52.738;8.316;2022-09-09T19:47:07;5.93;;;4.75;;
6185;SDS011;3126;52.738;8.316;2022-09-09T19:52:07;5.60;;;4.50;;
6185;SDS011;3126;52.738;8.316;2022-09-09T19:57:08;5.28;;;4.18;;
6185;SDS011;3126;52.738;8.316;2022-09-09T20:02:11;3.53;;;3.22;;
6185;SDS011;3126;52.738;8.316;2022-09-09T20:07:14;4.95;;;2.80;;
6185;SDS011;3126;52.738;8.316;2022-09-09T20:12:14;2.92;;;2.65;;
6185;SDS011;3126;52.738;8.316;2022-09-09T20:17:15;3.85;;;3.42;;
6185;SDS011;3126;52.738;8.316;2022-09-09T20:22:16;4.68;;;3.97;;
6185;SDS011;3126;52.738;8.316;2022-09-09T20:27:16;4.32;;;3.80;;
6185;SDS011;3126;52.738;8.316;2022-09-09T20:32:17;3.92;;;3.25;;
6185;SDS011;3126;52.738;8.316;2022-09-09T20:37:18;4.05;;;2.70;;
6185;SDS011;3126;52.738;8.316;2022-09-09T20:42:19;3.53;;;3.22;;
6185;SDS011;3126;52.738;8.316;2022-09-09T20:47:20;5.80;;;3.13;;
6185;SDS011;3126;52.738;8.316;2022-09-09T20:52:21;3.22;;;2.30;;
6185;SDS011;3126;52.738;8.316;2022-09-09T20:57:22;2.70;;;2.50;;
6185;SDS011;3126;52.738;8.316;2022-09-09T21:02:23;2.60;;;2.40;;
6185;SDS011;3126;52.738;8.316;2022-09-09T21:07:24;3.42;;;2.40;;
6185;SDS011;3126;52.738;8.316;2022-09-09T21:12:24;3.05;;;1.70;;
6185;SDS011;3126;52.738;8.316;2022-09-09T21:17:25;2.33;;;1.83;;
6185;SDS011;3126;52.738;8.316;2022-09-09T21:22:25;2.22;;;1.73;;
6185;SDS011;3126;52.738;8.316;2022-09-09T21:27:26;3.65;;;1.65;;
6185;SDS011;3126;52.738;8.316;2022-09-09T21:32:27;2.40;;;1.83;;
6185;SDS011;3126;52.738;8.316;2022-09-09T21:37:27;2.20;;;2.00;;
6185;SDS011;3126;52.738;8.316;2022-09-09T21:42:28;4.15;;;2.03;;
6185;SDS011;3126;52.738;8.316;2022-09-09T21:47:28;3.92;;;2.50;;
6185;SDS011;3126;52.738;8.316;2022-09-09T21:52:29;3.10;;;1.98;;
6185;SDS011;3126;52.738;8.316;2022-09-09T21:57:29;5.53;;;3.70;;
6185;SDS011;3126;52.738;8.316;2022-09-09T22:02:30;4.43;;;2.83;;
6185;SDS011;3126;52.738;8.316;2022-09-09T22:07:31;3.35;;;3.10;;
6185;SDS011;3126;52.738;8.316;2022-09-09T22:12:32;3.28;;;2.33;;
6185;SDS011;3126;52.738;8.316;2022-09-09T22:17:34;2.15;;;1.77;;
6185;SDS011;3126;52.738;8.316;2022-09-09T22:22:34;2.50;;;2.08;;
6185;SDS011;3126;52.738;8.316;2022-09-09T22:27:35;2.47;;;2.05;;
6185;SDS011;3126;52.738;8.316;2022-09-09T22:32:35;3.22;;;2.38;;
6185;SDS011;3126;52.738;8.316;2022-09-09T22:37:36;3.30;;;2.72;;
6185;SDS011;3126;52.738;8.316;2022-09-09T22:42:36;3.58;;;3.20;;
6185;SDS011;3126;52.738;8.316;2022-09-09T22:47:37;3.08;;;2.88;;
6185;SDS011;3126;52.738;8.316;2022-09-09T22:52:41;3.65;;;3.00;;
6185;SDS011;3126;52.738;8.316;2022-09-09T22:57:42;9.13;;;4.15;;
6185;SDS011;3126;52.738;8.316;2022-09-09T23:02:42;3.60;;;3.30;;
6185;SDS011;3126;52.738;8.316;2022-09-09T23:07:43;4.97;;;3.80;;
6185;SDS011;3126;52.738;8.316;2022-09-09T23:12:44;3.50;;;3.20;;
6185;SDS011;3126;52.738;8.316;2022-09-09T23:17:45;4.60;;;3.65;;
6185;SDS011;3126;52.738;8.316;2022-09-09T23:22:46;4.28;;;3.25;;
6185;SDS011;3126;52.738;8.316;2022-09-09T23:27:46;4.72;;;4.25;;
6185;SDS011;3126;52.738;8.316;2022-09-09T23:32:48;5.18;;;4.03;;
6185;SDS011;3126;52.738;8.316;2022-09-09T23:37:48;4.95;;;3.55;;
6185;SDS011;3126;52.738;8.316;2022-09-09T23:42:49;5.65;;;4.43;;
6185;SDS011;3126;52.738;8.316;2022-09-09T23:47:50;7.20;;;4.90;;
6185;SDS011;3126;52.738;8.316;2022-09-09T23:52:50;6.03;;;4.90;;
6185;SDS011;3126;52.738;8.316;2022-09-09T23:57:51;7.47;;;5.07;;
